Whiteman Air Force Base
KSZL : now visible

Airfield :











YOU CAN JOIN US ON...

 
LOGIN :

Register | Disclaimer

   EN    FR    IT 

 









Legend :    VFR   Marginal VFR   IFR   Intensive IFR   Very Intensive IFR
Visi :
Ceiling :
>= 8 km
>= 3000ft
5 to 8 km
1000 to 3000 ft
1500m to 5 km
500 to 1000 ft
800 to 1500m
200 to 500 ft
< 800m
< 200 ft
Symbols :   Thunderstorms  Fog  Heavy snow  Heavy precipitations  Wind > 20 kt






- Airport Elevation : 870 ft


KSZL - Whiteman Air Force Base

CURRENT METAR :
  • 081456Z 20015KT 10SM FEW250 12/00 A3032 RMK AO2A SLP271 T01230004 52010 $

EXPIRED METARs :
  • 081356Z 19011KT 10SM CLR 08/01 A3031 RMK AO2A SLP269 T00780005 $
  • 081256Z 19009KT 10SM FEW250 05/M01 A3030 RMK AO2A SLP267 T00451007 $

TAF TAF KSZL
Valid from the 08 at 11:00 until the 09 at 17:00 UTC


081100Z 0811/0917 21012KT 9999 SCT250 QNH3027INS
TEMPO 0814/0817 21015G25KT
BECMG 0817/0818 20012G18KT 9999 BKN200 QNH3022INS
BECMG 0823/0824 18012KT 9999 OVC150 621504 QNH3019INS TX20/0820Z TN04/0811Z
KZKC FIR / North America



MET'MAP, your aeronautical weather chart ! - Copyright ORBIFLY December 2007 - Disclaimer

ORBIFLY MET'MAP TEAM :

Programming & Development : Alexandra Zaïnal
Concept & original design : Baudouin d'Aumeries
Assistance for programming : Marc-Olivier Méhu
Technical & hardware support : Manuel Goepfert

Contact : metmap@orbifly.com




SOURCES & CREDITS :

   NOAA       Earth
Advisory